Time;durP1;ratioP1;P1;durP2;ratioP2;P2;SDS_P1;SDS_P2;PMS_P1;PMS_P2;Temp;Humidity;BMP_temperature;BMP_pressure;BME280_temperature;BME280_humidity;BME280_pressure;Samples;Min_cycle;Max_cycle;Signal;HPM_P1;HPM_P2
2022/08/19 00:01:20;;;;;;;10.43;8.43;;;20.70;99.90;;;;;;5115478;28;20173;-43
2022/08/19 00:03:46;;;;;;;9.75;8.55;;;20.70;99.90;;;;;;5115786;28;20156;-44
2022/08/19 00:06:13;;;;;;;12.18;8.07;;;20.60;99.90;;;;;;5115501;28;20157;-42
2022/08/19 00:08:39;;;;;;;9.18;7.68;;;20.50;99.90;;;;;;5097116;28;20651;-43
2022/08/19 00:11:05;;;;;;;12.70;8.48;;;20.40;99.90;;;;;;5115754;28;20168;-43
2022/08/19 00:13:30;;;;;;;13.07;8.52;;;20.30;99.90;;;;;;5115187;28;20265;-43
2022/08/19 00:15:58;;;;;;;14.73;8.25;;;20.30;99.90;;;;;;5115388;28;20161;-43
2022/08/19 00:18:24;;;;;;;10.45;8.70;;;20.20;99.90;;;;;;5097125;28;20173;-44
2022/08/19 00:20:49;;;;;;;12.07;8.00;;;20.20;99.90;;;;;;5115386;28;20172;-42
2022/08/19 00:23:15;;;;;;;9.88;7.85;;;20.20;99.90;;;;;;5115530;28;20204;-45
2022/08/19 00:25:41;;;;;;;11.23;7.75;;;20.10;99.90;;;;;;5114983;28;20632;-47
2022/08/19 00:28:07;;;;;;;10.55;8.25;;;20.10;99.90;;;;;;5115375;28;20176;-45
2022/08/19 00:30:32;;;;;;;15.27;8.27;;;20.10;99.90;;;;;;5115401;28;20591;-47
2022/08/19 00:32:58;;;;;;;12.32;8.15;;;20.10;99.90;;;;;;5115013;28;20169;-46
2022/08/19 00:35:24;;;;;;;10.55;8.48;;;20.10;99.90;;;;;;5114936;28;20620;-48
2022/08/19 00:37:50;;;;;;;12.13;8.15;;;20.10;99.90;;;;;;5114870;28;20215;-45
2022/08/19 00:40:18;;;;;;;9.82;8.60;;;20.10;99.90;;;;;;5114945;28;20165;-45
2022/08/19 00:42:44;;;;;;;13.90;9.30;;;20.10;99.90;;;;;;5096549;28;20512;-47
2022/08/19 00:45:20;;;;;;;16.17;9.25;;;20.10;99.90;;;;;;5096527;28;20176;-46
2022/08/19 00:47:45;;;;;;;12.80;9.68;;;20.10;99.90;;;;;;5114746;28;20160;-50
2022/08/19 00:50:14;;;;;;;11.65;9.60;;;20.10;99.90;;;;;;5114695;28;20192;-47
2022/08/19 00:52:45;;;;;;;12.07;10.55;;;20.00;99.90;;;;;;5114866;28;20172;-48
2022/08/19 00:55:21;;;;;;;13.43;11.27;;;20.00;99.90;;;;;;5096850;28;20176;-50
2022/08/19 00:57:54;;;;;;;15.52;11.60;;;19.90;99.90;;;;;;5114688;28;20567;-48
2022/08/19 01:00:21;;;;;;;14.23;12.05;;;19.90;99.90;;;;;;5114710;28;20776;-50
2022/08/19 01:02:48;;;;;;;13.32;11.45;;;20.00;99.90;;;;;;5114503;28;20184;-48
2022/08/19 01:05:22;;;;;;;13.18;11.80;;;19.90;99.90;;;;;;5114371;28;20164;-49
2022/08/19 01:07:50;;;;;;;14.35;12.95;;;19.90;99.90;;;;;;5114328;28;20160;-48
2022/08/19 01:10:19;;;;;;;12.98;11.57;;;20.00;99.90;;;;;;5114350;28;20156;-48
2022/08/19 01:12:47;;;;;;;18.73;12.73;;;19.90;99.90;;;;;;5114050;28;20683;-47
2022/08/19 01:15:17;;;;;;;13.95;12.60;;;19.80;99.90;;;;;;5095957;28;20184;-49
2022/08/19 01:17:44;;;;;;;16.10;13.63;;;19.80;99.90;;;;;;5114098;28;20682;-50
2022/08/19 01:20:16;;;;;;;14.70;13.20;;;19.70;99.90;;;;;;5114143;28;20252;-50
2022/08/19 01:22:48;;;;;;;16.58;13.77;;;19.70;99.90;;;;;;5114285;28;20169;-48
2022/08/19 01:25:18;;;;;;;16.70;14.02;;;19.70;99.90;;;;;;5114069;28;20639;-51
2022/08/19 01:27:47;;;;;;;15.57;13.95;;;19.60;99.90;;;;;;5114022;28;20225;-50
2022/08/19 01:30:25;;;;;;;15.88;14.18;;;19.60;99.90;;;;;;5114178;28;20180;-51
2022/08/19 01:32:52;;;;;;;18.90;15.02;;;19.60;99.90;;;;;;5113930;28;20164;-49
2022/08/19 01:35:19;;;;;;;17.85;14.23;;;19.60;99.90;;;;;;5113788;28;20161;-46
2022/08/19 01:38:00;;;;;;;19.55;16.10;;;19.60;99.90;;;;;;5113738;28;20200;-50
2022/08/19 01:40:29;;;;;;;17.55;14.93;;;19.50;99.90;;;;;;5113666;28;20245;-50
2022/08/19 01:42:55;;;;;;;17.30;15.48;;;19.50;99.90;;;;;;5113656;28;20179;-49
2022/08/19 01:45:23;;;;;;;24.50;15.32;;;19.40;99.90;;;;;;5095400;28;20173;-50
2022/08/19 01:47:49;;;;;;;18.98;15.98;;;19.40;99.90;;;;;;5113562;28;20207;-48
2022/08/19 01:50:15;;;;;;;20.25;16.50;;;19.30;99.90;;;;;;5113461;28;20218;-47
2022/08/19 01:52:43;;;;;;;17.63;15.63;;;19.40;99.90;;;;;;5113375;28;20164;-50
2022/08/19 01:55:14;;;;;;;18.42;16.48;;;19.40;99.90;;;;;;5113566;28;20215;-47
2022/08/19 01:57:42;;;;;;;21.42;17.67;;;19.50;99.90;;;;;;5112858;28;20211;-46
2022/08/19 02:00:12;;;;;;;21.67;18.27;;;19.40;99.90;;;;;;5113388;28;20157;-50
2022/08/19 02:02:39;;;;;;;22.60;18.20;;;19.40;99.90;;;;;;5113385;28;20180;-43
2022/08/19 02:05:06;;;;;;;21.80;18.58;;;19.40;99.90;;;;;;5113615;28;20157;-49
2022/08/19 02:07:32;;;;;;;25.50;19.48;;;19.40;99.90;;;;;;5113763;28;20177;-49
2022/08/19 02:09:58;;;;;;;22.95;19.05;;;19.30;99.90;;;;;;5113386;28;20519;-46
2022/08/19 02:12:24;;;;;;;22.42;18.10;;;19.40;99.90;;;;;;5094922;28;20173;-50
2022/08/19 02:14:49;;;;;;;20.52;18.38;;;19.20;99.90;;;;;;5112869;28;20213;-49
2022/08/19 02:17:15;;;;;;;20.98;18.67;;;19.10;99.90;;;;;;5113012;28;20201;-43
2022/08/19 02:19:40;;;;;;;20.50;17.48;;;19.00;99.90;;;;;;5112971;28;20244;-50
2022/08/19 02:22:06;;;;;;;19.75;16.52;;;19.00;99.90;;;;;;5113282;28;20188;-48
2022/08/19 02:24:32;;;;;;;20.63;17.27;;;19.00;99.90;;;;;;5113012;28;20192;-48
2022/08/19 02:26:58;;;;;;;20.83;17.48;;;19.00;99.90;;;;;;5112884;28;20196;-49
2022/08/19 02:29:24;;;;;;;21.30;18.80;;;18.80;99.90;;;;;;5113075;28;20168;-49
2022/08/19 02:31:50;;;;;;;23.15;20.60;;;18.80;99.90;;;;;;5112737;28;20260;-49
2022/08/19 02:34:16;;;;;;;22.15;19.85;;;18.80;99.90;;;;;;5094514;28;20252;-49
2022/08/19 02:36:42;;;;;;;23.98;20.13;;;18.80;99.90;;;;;;5094323;28;20289;-48
2022/08/19 02:39:09;;;;;;;27.85;22.25;;;18.80;99.90;;;;;;5112569;28;20235;-50
2022/08/19 02:41:34;;;;;;;25.38;22.58;;;18.90;99.90;;;;;;5113054;28;20164;-49
2022/08/19 02:44:02;;;;;;;27.23;22.50;;;18.80;99.90;;;;;;5112526;28;20176;-49
2022/08/19 02:46:30;;;;;;;26.88;22.73;;;18.90;99.90;;;;;;5112797;28;20169;-49
2022/08/19 02:48:59;;;;;;;28.83;23.70;;;18.90;99.90;;;;;;5112518;28;20156;-50
2022/08/19 02:51:27;;;;;;;27.40;23.65;;;18.80;99.90;;;;;;5112667;28;20683;-44
2022/08/19 02:53:53;;;;;;;30.08;23.83;;;18.90;99.90;;;;;;5112418;28;20180;-49
2022/08/19 02:56:19;;;;;;;35.00;23.98;;;18.90;99.90;;;;;;5112313;28;20208;-46
2022/08/19 02:58:45;;;;;;;28.77;25.38;;;18.80;99.90;;;;;;5112322;28;20171;-46
2022/08/19 03:01:12;;;;;;;30.95;25.75;;;18.90;99.90;;;;;;5112297;28;20516;-50
2022/08/19 03:03:38;;;;;;;27.88;23.65;;;18.90;99.90;;;;;;5112540;28;20173;-45
2022/08/19 03:06:14;;;;;;;29.83;24.55;;;18.90;99.90;;;;;;5112584;28;20165;-49
2022/08/19 03:08:42;;;;;;;30.40;25.50;;;18.90;99.90;;;;;;5112053;28;20192;-46
2022/08/19 03:11:16;;;;;;;32.15;26.00;;;18.80;99.90;;;;;;5112161;28;20196;-48
2022/08/19 03:13:43;;;;;;;29.38;25.90;;;18.90;99.90;;;;;;5112081;28;20219;-50
2022/08/19 03:16:09;;;;;;;31.92;26.80;;;18.90;99.90;;;;;;5112046;28;20245;-49
2022/08/19 03:18:35;;;;;;;33.85;27.75;;;18.90;99.90;;;;;;5112418;28;20612;-49
2022/08/19 03:21:00;;;;;;;30.42;26.40;;;18.90;99.90;;;;;;5111634;28;20173;-47
2022/08/19 03:23:26;;;;;;;32.67;29.13;;;18.80;99.90;;;;;;5112079;28;20165;-47
2022/08/19 03:25:53;;;;;;;36.92;29.13;;;18.70;99.90;;;;;;5111381;28;20631;-50
2022/08/19 03:28:20;;;;;;;35.38;27.77;;;18.70;99.90;;;;;;5112250;28;20180;-46
2022/08/19 03:31:00;;;;;;;32.50;26.67;;;18.80;99.90;;;;;;5112074;28;20192;-48
2022/08/19 03:33:27;;;;;;;32.72;27.85;;;18.70;99.90;;;;;;5112252;28;20177;-44
2022/08/19 03:36:11;;;;;;;35.28;29.05;;;18.60;99.90;;;;;;5112116;28;20169;-46
2022/08/19 03:38:40;;;;;;;35.03;29.50;;;18.60;99.90;;;;;;5111917;28;20165;-43
2022/08/19 03:41:09;;;;;;;33.90;27.05;;;18.60;99.90;;;;;;5112351;28;20221;-47
2022/08/19 03:43:38;;;;;;;36.40;28.85;;;18.70;99.90;;;;;;5112256;28;20259;-43
2022/08/19 03:46:08;;;;;;;35.25;28.83;;;18.40;99.90;;;;;;5112184;28;20161;-46
2022/08/19 03:48:34;;;;;;;35.60;29.95;;;18.70;99.90;;;;;;5112404;28;20192;-44
2022/08/19 03:51:00;;;;;;;34.53;30.17;;;18.70;99.90;;;;;;5111861;28;20236;-44
2022/08/19 03:53:27;;;;;;;40.10;31.25;;;18.70;99.90;;;;;;5111810;28;20741;-46
2022/08/19 03:55:53;;;;;;;41.67;31.08;;;18.80;99.90;;;;;;5093421;28;20165;-44
2022/08/19 03:58:20;;;;;;;37.47;32.58;;;18.80;99.90;;;;;;5111621;28;20549;-42
2022/08/19 04:00:45;;;;;;;36.58;30.67;;;18.90;99.90;;;;;;5111761;28;20616;-47
2022/08/19 04:03:11;;;;;;;43.88;34.72;;;18.90;99.90;;;;;;5111729;28;20221;-43
2022/08/19 04:05:37;;;;;;;39.40;32.15;;;18.90;99.90;;;;;;5111768;28;20164;-42
2022/08/19 04:08:05;;;;;;;46.10;31.48;;;18.80;99.90;;;;;;5094101;28;20603;-49
2022/08/19 04:10:35;;;;;;;39.17;31.98;;;19.00;99.90;;;;;;5111826;28;20164;-47
2022/08/19 04:13:00;;;;;;;33.00;28.48;;;18.90;99.90;;;;;;5111519;28;20158;-45
2022/08/19 04:15:27;;;;;;;33.60;28.33;;;18.90;99.90;;;;;;5111626;28;20696;-45
2022/08/19 04:17:52;;;;;;;35.80;29.17;;;18.80;99.90;;;;;;5111790;28;20232;-47
2022/08/19 04:20:18;;;;;;;32.67;29.13;;;18.70;99.90;;;;;;5113844;28;20585;-49
2022/08/19 04:22:44;;;;;;;37.28;29.42;;;18.50;99.90;;;;;;5115302;28;20168;-48
2022/08/19 04:25:10;;;;;;;37.65;31.05;;;18.50;99.90;;;;;;5115204;28;20167;-43
2022/08/19 04:27:35;;;;;;;35.72;29.10;;;18.40;99.90;;;;;;5115525;28;20183;-47
2022/08/19 04:30:01;;;;;;;39.45;29.80;;;18.40;99.90;;;;;;5115091;28;20522;-46
2022/08/19 04:32:27;;;;;;;39.90;30.15;;;18.40;99.90;;;;;;5115301;28;20180;-46
2022/08/19 04:34:53;;;;;;;38.78;29.75;;;18.30;99.90;;;;;;5115022;28;20171;-45
2022/08/19 04:37:18;;;;;;;37.72;29.65;;;18.20;99.90;;;;;;5115122;28;20295;-44
2022/08/19 04:42:40;;;;;;;40.80;30.52;;;18.10;99.90;;;;;;5114665;28;20252;-43
2022/08/19 04:45:12;;;;;;;35.45;30.92;;;18.20;99.90;;;;;;5115117;28;20164;-44
2022/08/19 04:47:40;;;;;;;39.50;31.40;;;18.20;99.90;;;;;;5114889;28;20170;-44
2022/08/19 04:50:07;;;;;;;34.80;28.80;;;18.20;99.90;;;;;;5114937;28;20168;-42
2022/08/19 04:52:33;;;;;;;35.53;29.02;;;18.20;99.90;;;;;;5114597;28;20680;-47
2022/08/19 04:54:59;;;;;;;36.17;30.17;;;18.20;99.90;;;;;;5096130;28;20553;-46
2022/08/19 04:57:26;;;;;;;41.67;30.55;;;18.30;99.90;;;;;;5114120;28;20204;-49
2022/08/19 04:59:55;;;;;;;39.13;30.02;;;18.20;99.90;;;;;;5114419;28;20168;-50
2022/08/19 05:02:24;;;;;;;36.95;29.40;;;18.30;99.90;;;;;;5114380;28;20168;-50
2022/08/19 05:04:55;;;;;;;33.08;28.95;;;18.40;99.90;;;;;;5114647;28;20168;-50
2022/08/19 05:07:21;;;;;;;36.47;29.75;;;18.40;99.90;;;;;;5114638;28;20251;-44
2022/08/19 05:09:46;;;;;;;37.03;29.50;;;18.40;99.90;;;;;;5113957;28;20253;-47
2022/08/19 05:12:12;;;;;;;36.17;29.05;;;18.40;99.90;;;;;;5114593;28;20176;-49
2022/08/19 05:14:37;;;;;;;36.03;28.75;;;18.40;99.90;;;;;;5114119;28;20214;-50
2022/08/19 05:17:03;;;;;;;39.95;30.15;;;18.50;99.90;;;;;;5114303;28;20207;-47
2022/08/19 05:24:57;;;;;;;33.33;27.90;;;18.50;99.90;;;;;;5113985;28;20172;-50
2022/08/19 05:27:22;;;;;;;32.28;27.10;;;18.50;99.90;;;;;;5114059;28;20165;-45
2022/08/19 05:29:48;;;;;;;32.75;28.55;;;18.50;99.90;;;;;;5113944;28;20167;-48
2022/08/19 05:32:13;;;;;;;33.60;28.75;;;18.50;99.90;;;;;;5112814;28;20168;-45
2022/08/19 05:34:39;;;;;;;34.28;26.58;;;18.50;99.90;;;;;;5113778;28;20169;-48
2022/08/19 05:37:07;;;;;;;32.90;28.42;;;18.40;99.90;;;;;;5113954;28;20208;-49
2022/08/19 05:39:34;;;;;;;34.70;28.02;;;18.60;99.90;;;;;;5114307;28;20168;-47
2022/08/19 05:42:06;;;;;;;36.00;28.27;;;18.70;99.90;;;;;;5113677;28;20661;-45
2022/08/19 05:44:34;;;;;;;37.55;28.83;;;18.80;99.90;;;;;;5113645;28;20172;-43
2022/08/19 05:47:01;;;;;;;37.42;28.25;;;18.80;99.90;;;;;;5112907;28;20256;-43
2022/08/19 05:49:28;;;;;;;37.30;29.50;;;18.80;99.90;;;;;;5113615;28;20173;-43
2022/08/19 05:51:55;;;;;;;34.15;30.23;;;18.80;99.90;;;;;;5113637;28;20165;-44
2022/08/19 05:54:22;;;;;;;34.92;29.23;;;18.90;99.90;;;;;;5113543;28;20537;-45
2022/08/19 05:56:49;;;;;;;34.92;29.00;;;18.80;99.90;;;;;;5113383;28;20212;-42
2022/08/19 05:59:16;;;;;;;34.33;29.85;;;18.90;99.90;;;;;;5113184;28;20173;-43
2022/08/19 06:01:45;;;;;;;37.88;30.80;;;19.10;99.90;;;;;;5113407;28;20541;-46
2022/08/19 06:04:13;;;;;;;38.15;29.95;;;19.10;99.90;;;;;;5113282;28;20253;-45
2022/08/19 06:06:39;;;;;;;37.15;30.02;;;19.10;99.90;;;;;;5113335;28;20175;-44
2022/08/19 06:09:07;;;;;;;34.50;28.77;;;19.00;99.90;;;;;;5113750;28;20533;-45
2022/08/19 06:11:41;;;;;;;38.65;29.88;;;19.10;99.90;;;;;;5113526;28;20176;-45
2022/08/19 06:14:17;;;;;;;35.50;29.38;;;19.10;99.90;;;;;;5112238;28;20349;-43
2022/08/19 06:16:44;;;;;;;35.25;31.05;;;19.20;99.90;;;;;;5112815;28;20189;-45
2022/08/19 06:19:13;;;;;;;38.42;30.55;;;19.10;99.90;;;;;;5112665;28;20595;-43
2022/08/19 06:21:41;;;;;;;42.25;31.20;;;19.00;99.90;;;;;;5112885;28;20164;-43
2022/08/19 06:24:09;;;;;;;37.92;31.65;;;19.10;99.90;;;;;;5112951;28;20165;-45
2022/08/19 06:26:38;;;;;;;38.28;31.83;;;19.10;99.90;;;;;;5113249;28;20168;-45
2022/08/19 06:29:06;;;;;;;36.63;30.35;;;19.30;99.90;;;;;;5113172;28;20686;-43
2022/08/19 06:31:33;;;;;;;44.80;33.28;;;19.40;99.90;;;;;;5113355;28;20169;-45
2022/08/19 06:34:04;;;;;;;39.95;31.33;;;19.50;99.90;;;;;;5112804;28;20247;-47
2022/08/19 06:36:34;;;;;;;41.13;32.05;;;19.50;99.90;;;;;;5112172;28;20192;-44
2022/08/19 06:39:22;;;;;;;41.78;32.88;;;19.30;99.90;;;;;;5112492;28;20267;-42
2022/08/19 06:41:50;;;;;;;40.17;32.92;;;19.30;99.90;;;;;;5112313;28;20175;-43
2022/08/19 06:44:17;;;;;;;40.67;32.25;;;19.30;99.90;;;;;;5112503;28;20199;-47
2022/08/19 06:46:43;;;;;;;42.72;33.78;;;19.20;99.90;;;;;;5112551;28;20607;-44
2022/08/19 06:49:13;;;;;;;47.13;35.83;;;19.20;99.90;;;;;;5112479;28;20196;-46
2022/08/19 06:51:39;;;;;;;41.90;32.60;;;19.20;99.90;;;;;;5112659;28;20200;-48
2022/08/19 06:54:05;;;;;;;43.78;34.05;;;19.10;99.90;;;;;;5111431;28;20183;-43
2022/08/19 06:56:34;;;;;;;47.35;34.92;;;19.20;99.90;;;;;;5111282;28;20196;-42
2022/08/19 06:59:05;;;;;;;48.45;33.42;;;19.20;99.90;;;;;;5124902;27;20263;-44
2022/08/19 07:01:34;;;;;;;43.50;34.00;;;19.20;99.90;;;;;;5131839;27;20155;-41
2022/08/19 07:04:02;;;;;;;48.45;34.78;;;19.30;99.90;;;;;;5131308;27;20243;-41
2022/08/19 07:06:27;;;;;;;49.40;35.50;;;19.40;99.90;;;;;;5131789;27;20179;-43
2022/08/19 07:08:53;;;;;;;49.00;34.53;;;19.50;99.90;;;;;;5131569;28;20156;-45
2022/08/19 07:11:19;;;;;;;47.53;35.00;;;19.50;99.90;;;;;;5131642;28;20168;-45
2022/08/19 07:13:45;;;;;;;47.92;34.13;;;19.50;99.90;;;;;;5131365;28;20211;-42
2022/08/19 07:16:16;;;;;;;48.17;34.75;;;19.80;99.90;;;;;;5131619;28;20689;-43
2022/08/19 07:18:42;;;;;;;46.83;36.00;;;19.90;99.90;;;;;;5131352;28;20183;-45
2022/08/19 07:21:20;;;;;;;46.67;36.22;;;20.00;99.90;;;;;;5131339;28;20544;-44
2022/08/19 07:23:48;;;;;;;44.28;34.00;;;20.20;99.90;;;;;;5131462;28;20300;-47
2022/08/19 07:26:26;;;;;;;51.33;37.42;;;20.20;99.90;;;;;;5131116;28;20674;-42
2022/08/19 07:28:51;;;;;;;48.65;35.45;;;20.30;99.90;;;;;;5131582;28;20160;-42
2022/08/19 07:31:22;;;;;;;46.80;34.78;;;20.40;99.90;;;;;;5131149;28;20182;-45
2022/08/19 07:33:50;;;;;;;51.65;37.97;;;20.40;99.90;;;;;;5131254;28;20509;-44
2022/08/19 07:36:19;;;;;;;52.10;36.60;;;20.40;99.90;;;;;;5129431;28;20635;-47
2022/08/19 07:38:48;;;;;;;56.53;37.85;;;20.30;99.90;;;;;;5110689;28;20169;-40
2022/08/19 07:41:17;;;;;;;57.30;39.67;;;20.60;99.90;;;;;;5110774;28;20179;-43
2022/08/19 07:43:43;;;;;;;57.90;37.08;;;20.60;99.90;;;;;;5110428;28;20184;-42
2022/08/19 07:46:11;;;;;;;59.53;38.65;;;20.70;99.90;;;;;;5110647;28;20172;-42
2022/08/19 07:48:36;;;;;;;56.72;39.50;;;20.90;99.90;;;;;;5110227;28;20639;-41
2022/08/19 07:51:07;;;;;;;57.47;37.88;;;21.10;99.90;;;;;;5111017;28;20192;-41
2022/08/19 07:53:32;;;;;;;55.47;37.33;;;21.10;99.90;;;;;;5110744;28;20191;-45
2022/08/19 07:56:02;;;;;;;52.22;36.95;;;21.10;99.90;;;;;;5114193;28;20172;-43
2022/08/19 07:58:28;;;;;;;50.55;37.17;;;21.00;99.90;;;;;;5114179;28;20675;-48
2022/08/19 08:00:54;;;;;;;55.20;37.05;;;21.10;99.90;;;;;;5114225;28;20176;-43
2022/08/19 08:09:10;;;;;;;51.83;35.28;;;21.10;99.90;;;;;;5114123;28;20183;-48
2022/08/19 08:11:35;;;;;;;50.78;35.95;;;21.30;99.90;;;;;;5114528;28;20179;-42
2022/08/19 08:14:01;;;;;;;48.22;34.13;;;21.40;99.90;;;;;;5114193;28;20295;-47
2022/08/19 08:16:29;;;;;;;47.78;32.17;;;21.50;99.90;;;;;;5113955;28;20275;-44
2022/08/19 08:18:55;;;;;;;43.63;31.42;;;21.50;99.90;;;;;;5113935;28;20647;-48
2022/08/19 08:21:21;;;;;;;44.10;30.25;;;21.70;99.90;;;;;;5113804;28;20184;-42
2022/08/19 08:23:46;;;;;;;43.45;32.22;;;21.50;99.90;;;;;;5113915;28;20161;-42
2022/08/19 08:26:14;;;;;;;46.42;32.28;;;21.50;99.90;;;;;;5113688;28;20214;-43
2022/08/19 08:28:39;;;;;;;42.30;28.42;;;21.70;99.90;;;;;;5114045;28;20191;-46
2022/08/19 08:31:05;;;;;;;40.33;28.02;;;21.60;99.90;;;;;;5114048;28;20527;-47
2022/08/19 08:33:31;;;;;;;39.22;28.48;;;21.50;99.90;;;;;;5114000;28;20225;-47
2022/08/19 08:35:56;;;;;;;39.47;27.45;;;21.60;99.90;;;;;;5113599;28;20171;-49
2022/08/19 08:38:22;;;;;;;35.65;24.85;;;21.70;99.90;;;;;;5113404;28;20269;-42
2022/08/19 08:40:53;;;;;;;34.38;25.63;;;21.70;99.90;;;;;;5113523;28;20184;-45
2022/08/19 08:43:30;;;;;;;31.70;24.58;;;21.70;99.90;;;;;;5113324;28;20595;-42
2022/08/19 08:46:17;;;;;;;35.72;25.75;;;21.70;99.90;;;;;;5113657;28;20172;-43
2022/08/19 08:48:55;;;;;;;30.83;24.30;;;21.60;99.90;;;;;;5113589;28;20169;-42
2022/08/19 08:51:40;;;;;;;32.55;24.70;;;21.80;99.90;;;;;;5113260;28;20221;-47
2022/08/19 08:54:08;;;;;;;31.17;23.92;;;21.90;99.90;;;;;;5113321;28;20255;-43
2022/08/19 08:56:33;;;;;;;32.42;22.40;;;21.90;99.90;;;;;;5113480;28;20604;-42
2022/08/19 08:59:07;;;;;;;30.38;24.20;;;21.90;99.90;;;;;;5113104;28;20211;-43
2022/08/19 09:01:34;;;;;;;31.75;23.92;;;21.90;99.90;;;;;;5113715;28;20267;-45
2022/08/19 09:03:59;;;;;;;30.85;22.90;;;22.00;99.90;;;;;;5113350;28;20566;-42
2022/08/19 09:06:37;;;;;;;27.45;21.23;;;22.20;99.90;;;;;;5112824;28;20161;-42
2022/08/19 09:09:12;;;;;;;29.05;21.15;;;22.40;99.90;;;;;;5113228;28;20172;-43
2022/08/19 09:12:19;;;;;;;26.13;17.27;;;22.70;99.90;;;;;;5113272;28;20168;-42
2022/08/19 09:14:51;;;;;;;20.77;16.17;;;23.10;99.90;;;;;;5056734;28;20243;-42
2022/08/19 09:17:27;;;;;;;21.67;17.50;;;23.20;99.90;;;;;;5112846;28;20544;-43
2022/08/19 09:20:13;;;;;;;19.85;16.23;;;23.50;99.90;;;;;;5113144;28;20203;-43
2022/08/19 09:22:43;;;;;;;19.77;16.83;;;23.80;99.90;;;;;;5112606;28;20300;-45
2022/08/19 09:25:12;;;;;;;16.92;14.57;;;23.80;99.90;;;;;;5112743;28;20250;-45
2022/08/19 09:27:40;;;;;;;18.00;15.25;;;24.10;99.90;;;;;;5112313;28;20168;-47
2022/08/19 09:30:08;;;;;;;16.23;13.73;;;24.20;99.90;;;;;;5112368;28;20160;-44
2022/08/19 09:32:34;;;;;;;18.45;14.45;;;24.60;99.90;;;;;;5113129;28;20229;-44
2022/08/19 09:35:01;;;;;;;17.17;14.48;;;24.50;99.90;;;;;;5112247;28;20207;-42
2022/08/19 09:37:27;;;;;;;19.52;16.50;;;24.60;99.90;;;;;;5112262;28;20211;-42
2022/08/19 09:39:53;;;;;;;17.58;15.77;;;24.90;99.90;;;;;;5112696;28;20187;-42
2022/08/19 09:42:19;;;;;;;21.75;18.35;;;24.80;99.90;;;;;;5112646;28;20199;-43
2022/08/19 09:44:46;;;;;;;19.75;15.93;;;25.00;99.90;;;;;;5112568;28;20190;-41
2022/08/19 09:47:12;;;;;;;20.35;15.13;;;25.20;99.90;;;;;;5112215;28;20168;-42
2022/08/19 09:49:39;;;;;;;25.38;16.27;;;25.40;99.90;;;;;;5112232;28;20152;-41
2022/08/19 09:52:07;;;;;;;21.25;16.83;;;25.50;99.90;;;;;;5112442;28;20225;-42
2022/08/19 09:54:33;;;;;;;20.80;17.23;;;25.50;99.90;;;;;;5112826;28;20171;-43
2022/08/19 09:57:02;;;;;;;20.65;18.13;;;25.10;99.90;;;;;;5111848;28;20752;-42
2022/08/19 09:59:29;;;;;;;20.13;16.55;;;25.20;99.90;;;;;;5112010;28;20172;-43
2022/08/19 10:01:55;;;;;;;24.55;17.08;;;25.10;99.90;;;;;;5111982;28;20175;-41
2022/08/19 10:04:21;;;;;;;23.05;17.00;;;24.80;99.90;;;;;;5111888;28;20156;-45
2022/08/19 10:06:48;;;;;;;22.00;18.70;;;24.80;99.90;;;;;;5111855;28;20229;-49
2022/08/19 10:09:15;;;;;;;22.33;18.42;;;25.00;99.90;;;;;;5111612;28;20707;-43
2022/08/19 10:11:42;;;;;;;20.23;17.65;;;25.00;99.90;;;;;;5112059;28;20254;-48
2022/08/19 10:14:08;;;;;;;19.63;16.77;;;24.90;99.90;;;;;;5111677;28;20239;-49
2022/08/19 10:16:36;;;;;;;18.27;15.70;;;24.70;99.90;;;;;;5111500;28;20284;-47
2022/08/19 10:19:02;;;;;;;20.70;16.42;;;24.90;99.90;;;;;;5093389;28;20172;-48
2022/08/19 10:21:30;;;;;;;19.73;16.05;;;24.90;99.90;;;;;;5111780;28;20178;-45
2022/08/19 10:23:58;;;;;;;17.20;15.40;;;25.00;99.90;;;;;;5111407;28;20647;-45
2022/08/19 10:26:29;;;;;;;17.83;15.93;;;25.10;99.90;;;;;;5111490;28;20214;-45
2022/08/19 10:28:56;;;;;;;17.58;15.48;;;25.30;99.90;;;;;;5111497;28;20157;-46
2022/08/19 10:31:26;;;;;;;17.90;13.30;;;25.40;99.90;;;;;;5111290;28;20526;-45
2022/08/19 10:33:57;;;;;;;15.85;13.52;;;25.50;99.90;;;;;;5111416;28;20175;-44
2022/08/19 10:36:28;;;;;;;15.85;14.23;;;25.50;99.90;;;;;;5111301;28;20639;-48
2022/08/19 10:38:58;;;;;;;15.82;14.10;;;25.60;99.90;;;;;;5111241;28;20225;-46
2022/08/19 10:41:27;;;;;;;16.10;13.75;;;25.60;99.90;;;;;;5111480;28;20172;-51
2022/08/19 10:43:58;;;;;;;13.40;12.00;;;25.60;99.90;;;;;;5111443;28;20168;-51
2022/08/19 10:46:27;;;;;;;13.13;11.73;;;25.80;99.90;;;;;;5111266;28;20161;-51
2022/08/19 10:48:54;;;;;;;16.33;12.60;;;25.60;99.90;;;;;;5111144;28;20643;-45
2022/08/19 10:54:05;;;;;;;13.82;11.98;;;25.60;99.90;;;;;;5111705;28;20444;-46
2022/08/19 10:59:27;;;;;;;18.25;14.70;;;25.80;99.90;;;;;;5111339;28;20178;-50
2022/08/19 11:01:53;;;;;;;13.45;12.05;;;25.80;99.90;;;;;;5110944;28;20191;-51
2022/08/19 11:04:19;;;;;;;13.02;11.75;;;26.10;99.90;;;;;;5110973;28;20174;-42
2022/08/19 11:06:47;;;;;;;14.48;12.88;;;26.20;99.90;;;;;;5110999;28;20170;-44
2022/08/19 11:09:15;;;;;;;16.83;13.07;;;26.20;99.90;;;;;;5110780;28;20322;-42
2022/08/19 11:11:41;;;;;;;18.85;13.65;;;26.00;99.90;;;;;;5111075;28;20164;-47
2022/08/19 11:14:12;;;;;;;16.70;13.63;;;25.50;99.90;;;;;;5110683;28;20281;-44
2022/08/19 11:16:38;;;;;;;16.98;13.02;;;25.90;99.90;;;;;;5110814;28;20260;-45
2022/08/19 11:19:06;;;;;;;12.95;11.20;;;26.40;99.90;;;;;;5110825;28;20711;-46
2022/08/19 11:21:35;;;;;;;13.73;11.27;;;26.40;99.90;;;;;;5111163;28;20243;-46
2022/08/19 11:24:05;;;;;;;15.43;12.02;;;26.20;99.90;;;;;;5111269;28;20237;-41
2022/08/19 11:26:34;;;;;;;12.82;10.50;;;26.10;99.90;;;;;;5110921;28;20642;-42
2022/08/19 11:29:00;;;;;;;12.02;10.55;;;26.10;99.90;;;;;;5112681;28;20164;-45
2022/08/19 11:31:30;;;;;;;12.02;10.45;;;26.30;99.90;;;;;;5114582;28;20180;-42
2022/08/19 11:34:04;;;;;;;13.02;11.63;;;26.60;99.90;;;;;;5114839;28;20160;-41
2022/08/19 11:36:32;;;;;;;13.05;11.52;;;26.90;99.90;;;;;;5114714;28;20187;-42
2022/08/19 11:38:57;;;;;;;13.40;11.57;;;26.80;99.90;;;;;;5114821;28;20180;-42
2022/08/19 11:41:23;;;;;;;10.48;9.10;;;27.00;99.90;;;;;;5114541;28;20509;-42
2022/08/19 11:43:52;;;;;;;11.10;9.15;;;27.10;99.90;;;;;;5114281;28;20259;-42
2022/08/19 11:46:18;;;;;;;13.30;10.55;;;27.50;99.90;;;;;;5096335;28;20160;-42
2022/08/19 11:48:44;;;;;;;12.55;10.20;;;27.40;99.90;;;;;;5105251;28;20179;-42
2022/08/19 11:51:13;;;;;;;12.75;9.60;;;27.60;99.90;;;;;;5102808;28;20208;-43
2022/08/19 11:53:39;;;;;;;16.02;12.52;;;27.90;99.90;;;;;;5114486;28;20526;-44
2022/08/19 11:56:07;;;;;;;15.40;13.27;;;27.60;99.90;;;;;;5114645;28;20172;-42
2022/08/19 11:58:34;;;;;;;13.73;11.13;;;27.80;99.90;;;;;;5114396;28;20218;-44
2022/08/19 12:01:00;;;;;;;15.70;10.85;;;27.60;99.90;;;;;;5114282;28;20800;-44
2022/08/19 12:03:26;;;;;;;13.18;10.63;;;27.60;99.90;;;;;;5114086;28;20184;-43
2022/08/19 12:05:51;;;;;;;14.55;10.52;;;27.40;99.90;;;;;;5113987;28;20206;-42
2022/08/19 12:08:17;;;;;;;13.55;11.00;;;26.90;99.90;;;;;;5114018;28;20168;-44
2022/08/19 12:10:45;;;;;;;12.27;10.73;;;27.00;99.90;;;;;;5114189;28;20168;-43
2022/08/19 12:13:13;;;;;;;13.30;10.52;;;27.20;99.90;;;;;;5113722;28;20623;-45
2022/08/19 12:15:42;;;;;;;12.73;10.15;;;27.30;99.90;;;;;;5095816;28;20176;-48
2022/08/19 12:18:09;;;;;;;12.57;10.02;;;27.50;99.90;;;;;;5114178;28;20228;-50
2022/08/19 12:20:37;;;;;;;8.95;8.05;;;27.70;99.90;;;;;;5114131;28;20171;-43
2022/08/19 12:23:03;;;;;;;12.63;10.20;;;27.90;99.90;;;;;;5114094;28;20164;-45
2022/08/19 12:25:30;;;;;;;16.88;11.52;;;28.00;99.90;;;;;;5113842;28;20218;-43
2022/08/19 12:27:56;;;;;;;13.05;10.18;;;27.80;99.90;;;;;;5114046;28;20225;-44
2022/08/19 12:30:22;;;;;;;11.20;9.68;;;27.70;99.90;;;;;;5113681;28;20164;-45
2022/08/19 12:32:47;;;;;;;11.38;8.15;;;27.80;99.90;;;;;;5113754;28;20167;-46
2022/08/19 12:35:13;;;;;;;12.48;8.98;;;28.00;99.90;;;;;;5113523;28;20160;-46
2022/08/19 12:37:44;;;;;;;10.48;9.27;;;27.70;99.90;;;;;;5113436;28;20210;-49
2022/08/19 12:40:11;;;;;;;12.05;8.55;;;27.70;99.90;;;;;;5111556;28;20160;-42
2022/08/19 12:42:41;;;;;;;12.45;8.20;;;27.40;99.90;;;;;;5113787;28;20563;-42
2022/08/19 12:45:07;;;;;;;8.60;7.80;;;27.70;99.90;;;;;;5112522;28;20168;-45
2022/08/19 12:47:33;;;;;;;8.15;7.30;;;28.00;99.90;;;;;;5113380;28;20183;-44
2022/08/19 12:49:58;;;;;;;10.55;6.90;;;28.00;99.90;;;;;;5113396;28;20615;-43
2022/08/19 12:52:25;;;;;;;10.07;7.40;;;28.10;99.90;;;;;;5113082;28;20602;-48